San Bernardino, CA (92403)

5:40 PM PDT on August 03, 2015 (GMT -0700)
MesoWest | | Change Station
CLOSE
Current Station
Personal Weather Station
Location: San Bernardino, CA
Elevation: 1049 ft
Nearby Weather Stations

Elev 1049 ft 34.11 °N, 117.30 °W | Updated 51 minutes ago

Scattered Clouds
Scattered Clouds
94 °F
Feels Like 91 °F
N
0
Wind Variable Wind from North
Gusts 0.0 mph

Today
High -- | Low -- °F
--% Chance of Precip.
Yesterday
High -- | Low -- °F
Precip. -- in
6:01 AM 7:48 PM
Waning Gibbous, 83% visible
Pressure 29.84 in
Visibility 7.0 miles
Clouds Scattered Clouds 12000 ft
Heat Index 91 °F
Dew Point 49 °F
Humidity 22%
Rainfall in
Snow Depth Not available.
UV 3 out of 12
Pollen 4.20 out of 12
Air Quality Not available.
Flu Activity Not available.
METAR KSBD 032350Z 24005KT 7SM SCT120 35/03 A2984

More Conditions Fewer Conditions

Pressure 29.84 in
Visibility 7.0 miles
Clouds Scattered Clouds 12000 ft
Heat Index 91 °F
Dew Point 49 °F
Humidity 22%
Rainfall in
Snow Depth Not available.
UV 3 out of 12
Pollen 4.20 out of 12
Air Quality Not available.
Flu Activity Not available.
METAR KSBD 032350Z 24005KT 7SM SCT120 35/03 A2984

More Conditions Fewer Conditions

10-Day Weather Forecast

×

Almanac

Astronomy

Aug. 03, 2015 Rise Set
Actual Time
Civil Twilight
Nautical Twilight
Astronomical Twilight
Moon
Length of Visible Light
Length of Day
Tomorrow will be .
, % of the Moon is Illuminated

Today's Extremes

State Highs State Lows

Community

WunderPhotos

Upload Photos

1,843,797 photos uploaded!

WunderBlogs® & News

Nearby

Air Quality

  Air Quality AQ Index Pollutant
Not available.

Snow Depth

Station Depth Elevation

Earthquake Activity

City Distance Mag. Time & Date
Minimum magnitude displayed is 2.5.

Coastal Water Temperatures

Place Temperature

Stations

Nearby Weather Stations

Station Location Temp. Windchill Dew Point Humidity Wind Precip. Elev Updated Type